sensor_id;sensor_type;location;lat;lon;timestamp;P1;durP1;ratioP1;P2;durP2;ratioP2
37609;SDS011;23457;51.966;8.230;2023-02-21T00:01:39;95.15;;;45.90;;
37609;SDS011;23457;51.966;8.230;2023-02-21T00:04:24;89.25;;;45.88;;
37609;SDS011;23457;51.966;8.230;2023-02-21T00:07:09;92.03;;;45.67;;
37609;SDS011;23457;51.966;8.230;2023-02-21T00:09:54;97.30;;;47.08;;
37609;SDS011;23457;51.966;8.230;2023-02-21T00:12:40;91.88;;;46.90;;
37609;SDS011;23457;51.966;8.230;2023-02-21T00:15:25;93.38;;;45.70;;
37609;SDS011;23457;51.966;8.230;2023-02-21T00:18:10;83.57;;;45.60;;
37609;SDS011;23457;51.966;8.230;2023-02-21T00:20:55;90.00;;;45.88;;
37609;SDS011;23457;51.966;8.230;2023-02-21T00:23:41;92.68;;;44.17;;
37609;SDS011;23457;51.966;8.230;2023-02-21T00:26:26;87.97;;;45.17;;
37609;SDS011;23457;51.966;8.230;2023-02-21T00:29:11;96.00;;;46.28;;
37609;SDS011;23457;51.966;8.230;2023-02-21T00:31:56;89.78;;;44.10;;
37609;SDS011;23457;51.966;8.230;2023-02-21T00:34:42;83.30;;;43.55;;
37609;SDS011;23457;51.966;8.230;2023-02-21T00:37:27;89.57;;;45.10;;
37609;SDS011;23457;51.966;8.230;2023-02-21T00:40:13;92.93;;;43.47;;
37609;SDS011;23457;51.966;8.230;2023-02-21T00:42:59;87.82;;;42.90;;
37609;SDS011;23457;51.966;8.230;2023-02-21T00:45:45;83.28;;;42.75;;
37609;SDS011;23457;51.966;8.230;2023-02-21T00:48:31;85.43;;;43.08;;
37609;SDS011;23457;51.966;8.230;2023-02-21T00:51:16;84.65;;;41.58;;
37609;SDS011;23457;51.966;8.230;2023-02-21T00:54:02;83.68;;;41.70;;
37609;SDS011;23457;51.966;8.230;2023-02-21T00:56:47;87.15;;;43.97;;
37609;SDS011;23457;51.966;8.230;2023-02-21T00:59:32;84.00;;;43.30;;
37609;SDS011;23457;51.966;8.230;2023-02-21T01:02:17;82.53;;;44.25;;
37609;SDS011;23457;51.966;8.230;2023-02-21T01:05:03;89.15;;;43.35;;
37609;SDS011;23457;51.966;8.230;2023-02-21T01:07:48;86.13;;;43.63;;
37609;SDS011;23457;51.966;8.230;2023-02-21T01:10:34;85.45;;;42.35;;
37609;SDS011;23457;51.966;8.230;2023-02-21T01:13:20;81.43;;;41.92;;
37609;SDS011;23457;51.966;8.230;2023-02-21T01:16:06;85.75;;;42.72;;
37609;SDS011;23457;51.966;8.230;2023-02-21T01:18:52;79.95;;;42.97;;
37609;SDS011;23457;51.966;8.230;2023-02-21T01:21:37;86.35;;;44.30;;
37609;SDS011;23457;51.966;8.230;2023-02-21T01:24:22;84.80;;;44.45;;
37609;SDS011;23457;51.966;8.230;2023-02-21T01:27:07;87.60;;;44.63;;
37609;SDS011;23457;51.966;8.230;2023-02-21T01:29:52;93.88;;;45.50;;
37609;SDS011;23457;51.966;8.230;2023-02-21T01:32:38;88.32;;;44.85;;
37609;SDS011;23457;51.966;8.230;2023-02-21T01:35:23;85.43;;;44.15;;
37609;SDS011;23457;51.966;8.230;2023-02-21T01:38:08;96.03;;;45.97;;
37609;SDS011;23457;51.966;8.230;2023-02-21T01:40:53;93.20;;;43.53;;
37609;SDS011;23457;51.966;8.230;2023-02-21T01:43:54;91.35;;;45.88;;
37609;SDS011;23457;51.966;8.230;2023-02-21T01:46:41;94.50;;;46.90;;
37609;SDS011;23457;51.966;8.230;2023-02-21T01:49:26;84.10;;;43.13;;
37609;SDS011;23457;51.966;8.230;2023-02-21T01:52:14;91.93;;;46.47;;
37609;SDS011;23457;51.966;8.230;2023-02-21T01:54:59;88.53;;;44.13;;
37609;SDS011;23457;51.966;8.230;2023-02-21T01:57:45;95.30;;;44.22;;
37609;SDS011;23457;51.966;8.230;2023-02-21T02:00:38;89.60;;;43.92;;
37609;SDS011;23457;51.966;8.230;2023-02-21T02:03:23;97.00;;;45.47;;
37609;SDS011;23457;51.966;8.230;2023-02-21T02:06:09;99.38;;;46.28;;
37609;SDS011;23457;51.966;8.230;2023-02-21T02:09:08;92.43;;;45.80;;
37609;SDS011;23457;51.966;8.230;2023-02-21T02:14:56;92.85;;;44.88;;
37609;SDS011;23457;51.966;8.230;2023-02-21T02:31:15;100.50;;;46.47;;
37609;SDS011;23457;51.966;8.230;2023-02-21T02:36:41;96.35;;;46.25;;
37609;SDS011;23457;51.966;8.230;2023-02-21T02:44:52;89.45;;;45.10;;
37609;SDS011;23457;51.966;8.230;2023-02-21T02:47:29;94.43;;;45.80;;
37609;SDS011;23457;51.966;8.230;2023-02-21T02:50:02;102.57;;;46.42;;
37609;SDS011;23457;51.966;8.230;2023-02-21T02:52:30;95.05;;;45.25;;
37609;SDS011;23457;51.966;8.230;2023-02-21T02:55:04;94.72;;;46.20;;
37609;SDS011;23457;51.966;8.230;2023-02-21T02:57:49;99.55;;;46.83;;
37609;SDS011;23457;51.966;8.230;2023-02-21T03:00:18;95.22;;;45.92;;
37609;SDS011;23457;51.966;8.230;2023-02-21T03:08:02;100.53;;;46.78;;
37609;SDS011;23457;51.966;8.230;2023-02-21T03:16:05;104.68;;;47.17;;
37609;SDS011;23457;51.966;8.230;2023-02-21T03:18:42;89.35;;;45.22;;
37609;SDS011;23457;51.966;8.230;2023-02-21T03:21:16;90.45;;;45.72;;
37609;SDS011;23457;51.966;8.230;2023-02-21T03:23:46;97.80;;;45.70;;
37609;SDS011;23457;51.966;8.230;2023-02-21T03:26:17;98.32;;;46.70;;
37609;SDS011;23457;51.966;8.230;2023-02-21T03:28:47;103.50;;;48.28;;
37609;SDS011;23457;51.966;8.230;2023-02-21T03:31:18;102.50;;;46.97;;
37609;SDS011;23457;51.966;8.230;2023-02-21T03:33:49;108.80;;;48.72;;
37609;SDS011;23457;51.966;8.230;2023-02-21T03:36:15;98.93;;;47.70;;
37609;SDS011;23457;51.966;8.230;2023-02-21T03:38:42;101.20;;;49.15;;
37609;SDS011;23457;51.966;8.230;2023-02-21T03:41:09;106.43;;;49.40;;
37609;SDS011;23457;51.966;8.230;2023-02-21T03:43:38;103.05;;;47.42;;
37609;SDS011;23457;51.966;8.230;2023-02-21T03:46:05;109.90;;;49.65;;
37609;SDS011;23457;51.966;8.230;2023-02-21T03:48:33;102.65;;;49.67;;
37609;SDS011;23457;51.966;8.230;2023-02-21T03:51:09;107.38;;;49.88;;
37609;SDS011;23457;51.966;8.230;2023-02-21T03:53:36;113.18;;;50.45;;
37609;SDS011;23457;51.966;8.230;2023-02-21T03:56:04;106.20;;;49.10;;
37609;SDS011;23457;51.966;8.230;2023-02-21T03:58:50;102.57;;;47.78;;
37609;SDS011;23457;51.966;8.230;2023-02-21T04:01:16;107.95;;;50.88;;
37609;SDS011;23457;51.966;8.230;2023-02-21T04:03:43;114.20;;;49.05;;
37609;SDS011;23457;51.966;8.230;2023-02-21T04:06:10;110.40;;;49.75;;
37609;SDS011;23457;51.966;8.230;2023-02-21T04:08:37;111.72;;;48.80;;
37609;SDS011;23457;51.966;8.230;2023-02-21T04:11:04;112.22;;;48.17;;
37609;SDS011;23457;51.966;8.230;2023-02-21T04:13:33;108.47;;;47.70;;
37609;SDS011;23457;51.966;8.230;2023-02-21T04:16:01;104.10;;;49.38;;
37609;SDS011;23457;51.966;8.230;2023-02-21T04:18:28;118.10;;;49.50;;
37609;SDS011;23457;51.966;8.230;2023-02-21T04:20:58;110.22;;;48.70;;
37609;SDS011;23457;51.966;8.230;2023-02-21T04:23:24;115.75;;;50.58;;
37609;SDS011;23457;51.966;8.230;2023-02-21T04:25:51;113.10;;;51.45;;
37609;SDS011;23457;51.966;8.230;2023-02-21T04:28:25;119.45;;;51.83;;
37609;SDS011;23457;51.966;8.230;2023-02-21T04:30:51;118.82;;;51.78;;
37609;SDS011;23457;51.966;8.230;2023-02-21T04:33:19;115.30;;;49.78;;
37609;SDS011;23457;51.966;8.230;2023-02-21T04:35:45;111.18;;;50.78;;
37609;SDS011;23457;51.966;8.230;2023-02-21T04:38:24;114.20;;;49.65;;
37609;SDS011;23457;51.966;8.230;2023-02-21T04:40:51;124.10;;;51.38;;
37609;SDS011;23457;51.966;8.230;2023-02-21T04:43:17;122.30;;;52.55;;
37609;SDS011;23457;51.966;8.230;2023-02-21T04:45:46;108.32;;;50.63;;
37609;SDS011;23457;51.966;8.230;2023-02-21T04:48:13;121.80;;;51.90;;
37609;SDS011;23457;51.966;8.230;2023-02-21T04:50:39;119.97;;;51.95;;
37609;SDS011;23457;51.966;8.230;2023-02-21T04:53:06;126.82;;;52.15;;
37609;SDS011;23457;51.966;8.230;2023-02-21T04:55:33;127.85;;;54.45;;
37609;SDS011;23457;51.966;8.230;2023-02-21T04:57:59;117.63;;;49.97;;
37609;SDS011;23457;51.966;8.230;2023-02-21T05:00:26;124.72;;;54.33;;
37609;SDS011;23457;51.966;8.230;2023-02-21T05:02:52;128.30;;;51.00;;
37609;SDS011;23457;51.966;8.230;2023-02-21T05:05:19;122.40;;;53.00;;
37609;SDS011;23457;51.966;8.230;2023-02-21T05:07:46;127.00;;;52.90;;
37609;SDS011;23457;51.966;8.230;2023-02-21T05:10:14;120.75;;;51.20;;
37609;SDS011;23457;51.966;8.230;2023-02-21T05:12:41;130.77;;;52.72;;
37609;SDS011;23457;51.966;8.230;2023-02-21T05:15:08;130.13;;;51.65;;
37609;SDS011;23457;51.966;8.230;2023-02-21T05:17:36;139.65;;;54.22;;
37609;SDS011;23457;51.966;8.230;2023-02-21T05:20:03;135.25;;;52.78;;
37609;SDS011;23457;51.966;8.230;2023-02-21T05:22:37;137.50;;;55.53;;
37609;SDS011;23457;51.966;8.230;2023-02-21T05:25:16;139.07;;;52.80;;
37609;SDS011;23457;51.966;8.230;2023-02-21T05:27:44;145.90;;;54.58;;
37609;SDS011;23457;51.966;8.230;2023-02-21T05:30:12;147.15;;;54.50;;
37609;SDS011;23457;51.966;8.230;2023-02-21T05:32:43;143.80;;;52.70;;
37609;SDS011;23457;51.966;8.230;2023-02-21T05:35:12;147.70;;;57.63;;
37609;SDS011;23457;51.966;8.230;2023-02-21T05:37:40;155.13;;;56.33;;
37609;SDS011;23457;51.966;8.230;2023-02-21T05:40:09;147.02;;;54.55;;
37609;SDS011;23457;51.966;8.230;2023-02-21T05:42:41;151.63;;;55.08;;
37609;SDS011;23457;51.966;8.230;2023-02-21T05:45:09;153.88;;;55.03;;
37609;SDS011;23457;51.966;8.230;2023-02-21T05:47:35;151.18;;;54.65;;
37609;SDS011;23457;51.966;8.230;2023-02-21T05:50:02;152.75;;;53.70;;
37609;SDS011;23457;51.966;8.230;2023-02-21T05:52:30;139.88;;;51.65;;
37609;SDS011;23457;51.966;8.230;2023-02-21T05:54:57;146.13;;;52.58;;
37609;SDS011;23457;51.966;8.230;2023-02-21T05:57:23;145.13;;;51.72;;
37609;SDS011;23457;51.966;8.230;2023-02-21T05:59:50;147.73;;;53.13;;
37609;SDS011;23457;51.966;8.230;2023-02-21T06:02:17;141.18;;;51.80;;
37609;SDS011;23457;51.966;8.230;2023-02-21T06:04:44;141.20;;;50.88;;
37609;SDS011;23457;51.966;8.230;2023-02-21T06:07:10;142.85;;;53.13;;
37609;SDS011;23457;51.966;8.230;2023-02-21T06:09:37;134.52;;;50.83;;
37609;SDS011;23457;51.966;8.230;2023-02-21T06:12:03;146.55;;;54.20;;
37609;SDS011;23457;51.966;8.230;2023-02-21T06:14:30;126.10;;;47.45;;
37609;SDS011;23457;51.966;8.230;2023-02-21T06:16:57;136.63;;;49.15;;
37609;SDS011;23457;51.966;8.230;2023-02-21T06:19:25;140.05;;;48.58;;
37609;SDS011;23457;51.966;8.230;2023-02-21T06:21:52;129.93;;;48.20;;
37609;SDS011;23457;51.966;8.230;2023-02-21T06:24:18;135.30;;;48.15;;
37609;SDS011;23457;51.966;8.230;2023-02-21T06:26:45;135.60;;;48.58;;
37609;SDS011;23457;51.966;8.230;2023-02-21T06:29:12;136.10;;;49.47;;
37609;SDS011;23457;51.966;8.230;2023-02-21T06:31:38;139.35;;;48.88;;
37609;SDS011;23457;51.966;8.230;2023-02-21T06:34:06;138.88;;;48.50;;
37609;SDS011;23457;51.966;8.230;2023-02-21T06:36:33;138.73;;;50.30;;
37609;SDS011;23457;51.966;8.230;2023-02-21T06:39:00;133.88;;;49.78;;
37609;SDS011;23457;51.966;8.230;2023-02-21T06:41:27;133.77;;;48.70;;
37609;SDS011;23457;51.966;8.230;2023-02-21T06:43:56;132.90;;;48.83;;
37609;SDS011;23457;51.966;8.230;2023-02-21T06:46:24;128.10;;;50.08;;
37609;SDS011;23457;51.966;8.230;2023-02-21T06:48:53;142.40;;;51.50;;
37609;SDS011;23457;51.966;8.230;2023-02-21T06:51:20;138.80;;;51.60;;
37609;SDS011;23457;51.966;8.230;2023-02-21T06:53:54;138.30;;;50.15;;
37609;SDS011;23457;51.966;8.230;2023-02-21T06:56:22;138.13;;;50.63;;
37609;SDS011;23457;51.966;8.230;2023-02-21T06:58:49;135.30;;;50.65;;
37609;SDS011;23457;51.966;8.230;2023-02-21T07:01:16;136.40;;;48.95;;
37609;SDS011;23457;51.966;8.230;2023-02-21T07:03:43;131.88;;;49.80;;
37609;SDS011;23457;51.966;8.230;2023-02-21T07:06:11;140.43;;;51.47;;
37609;SDS011;23457;51.966;8.230;2023-02-21T07:08:38;147.05;;;52.00;;
37609;SDS011;23457;51.966;8.230;2023-02-21T07:11:05;150.88;;;52.15;;
37609;SDS011;23457;51.966;8.230;2023-02-21T07:13:32;145.20;;;49.65;;
37609;SDS011;23457;51.966;8.230;2023-02-21T07:16:00;147.45;;;51.88;;
37609;SDS011;23457;51.966;8.230;2023-02-21T07:18:28;138.13;;;50.55;;
37609;SDS011;23457;51.966;8.230;2023-02-21T07:20:54;127.75;;;47.97;;
37609;SDS011;23457;51.966;8.230;2023-02-21T07:23:21;126.93;;;46.00;;
37609;SDS011;23457;51.966;8.230;2023-02-21T07:25:48;124.20;;;45.58;;
37609;SDS011;23457;51.966;8.230;2023-02-21T07:28:14;121.85;;;46.88;;
37609;SDS011;23457;51.966;8.230;2023-02-21T07:30:41;114.60;;;45.58;;
37609;SDS011;23457;51.966;8.230;2023-02-21T07:33:08;115.10;;;45.45;;
37609;SDS011;23457;51.966;8.230;2023-02-21T07:35:34;111.20;;;44.63;;
37609;SDS011;23457;51.966;8.230;2023-02-21T07:38:01;114.53;;;45.03;;
37609;SDS011;23457;51.966;8.230;2023-02-21T07:40:28;110.03;;;44.25;;
37609;SDS011;23457;51.966;8.230;2023-02-21T07:42:54;106.50;;;46.00;;
37609;SDS011;23457;51.966;8.230;2023-02-21T07:45:21;114.57;;;44.45;;
37609;SDS011;23457;51.966;8.230;2023-02-21T07:47:47;113.50;;;44.92;;
37609;SDS011;23457;51.966;8.230;2023-02-21T07:50:16;109.18;;;44.33;;
37609;SDS011;23457;51.966;8.230;2023-02-21T07:52:44;110.63;;;44.58;;
37609;SDS011;23457;51.966;8.230;2023-02-21T07:55:11;107.20;;;44.70;;
37609;SDS011;23457;51.966;8.230;2023-02-21T07:57:38;105.28;;;43.28;;
37609;SDS011;23457;51.966;8.230;2023-02-21T08:00:05;111.38;;;46.05;;
37609;SDS011;23457;51.966;8.230;2023-02-21T08:02:38;116.78;;;46.42;;
37609;SDS011;23457;51.966;8.230;2023-02-21T08:05:05;111.93;;;44.65;;
37609;SDS011;23457;51.966;8.230;2023-02-21T08:07:33;114.55;;;46.33;;
37609;SDS011;23457;51.966;8.230;2023-02-21T08:09:59;109.95;;;45.88;;
37609;SDS011;23457;51.966;8.230;2023-02-21T08:12:26;117.95;;;47.72;;
37609;SDS011;23457;51.966;8.230;2023-02-21T08:14:52;120.35;;;48.45;;
37609;SDS011;23457;51.966;8.230;2023-02-21T08:17:19;120.00;;;47.45;;
37609;SDS011;23457;51.966;8.230;2023-02-21T08:19:45;119.30;;;48.33;;
37609;SDS011;23457;51.966;8.230;2023-02-21T08:22:12;126.18;;;47.58;;
37609;SDS011;23457;51.966;8.230;2023-02-21T08:24:39;120.95;;;47.38;;
37609;SDS011;23457;51.966;8.230;2023-02-21T08:27:05;116.45;;;46.58;;
37609;SDS011;23457;51.966;8.230;2023-02-21T08:29:32;125.05;;;49.38;;
37609;SDS011;23457;51.966;8.230;2023-02-21T08:31:59;124.72;;;48.25;;
37609;SDS011;23457;51.966;8.230;2023-02-21T08:34:26;122.03;;;47.83;;
37609;SDS011;23457;51.966;8.230;2023-02-21T08:36:55;126.82;;;48.50;;
37609;SDS011;23457;51.966;8.230;2023-02-21T08:39:22;134.55;;;49.33;;
37609;SDS011;23457;51.966;8.230;2023-02-21T08:41:49;127.63;;;47.80;;
37609;SDS011;23457;51.966;8.230;2023-02-21T08:44:17;136.50;;;51.20;;
37609;SDS011;23457;51.966;8.230;2023-02-21T08:46:47;137.98;;;49.35;;
37609;SDS011;23457;51.966;8.230;2023-02-21T08:49:15;135.20;;;48.47;;
37609;SDS011;23457;51.966;8.230;2023-02-21T08:51:42;135.23;;;48.75;;
37609;SDS011;23457;51.966;8.230;2023-02-21T08:54:08;149.23;;;50.90;;
37609;SDS011;23457;51.966;8.230;2023-02-21T08:56:35;132.40;;;50.38;;
37609;SDS011;23457;51.966;8.230;2023-02-21T08:59:02;133.82;;;49.13;;
37609;SDS011;23457;51.966;8.230;2023-02-21T09:01:33;137.90;;;48.33;;
37609;SDS011;23457;51.966;8.230;2023-02-21T09:04:01;143.10;;;51.28;;
37609;SDS011;23457;51.966;8.230;2023-02-21T09:06:29;143.13;;;51.22;;
37609;SDS011;23457;51.966;8.230;2023-02-21T09:08:56;145.88;;;52.83;;
37609;SDS011;23457;51.966;8.230;2023-02-21T09:11:23;146.55;;;50.03;;
37609;SDS011;23457;51.966;8.230;2023-02-21T09:13:49;142.93;;;50.45;;
37609;SDS011;23457;51.966;8.230;2023-02-21T09:16:18;141.57;;;51.42;;
37609;SDS011;23457;51.966;8.230;2023-02-21T09:18:51;146.57;;;48.70;;
37609;SDS011;23457;51.966;8.230;2023-02-21T09:21:19;148.45;;;52.38;;
37609;SDS011;23457;51.966;8.230;2023-02-21T09:23:46;149.32;;;50.10;;
37609;SDS011;23457;51.966;8.230;2023-02-21T09:26:12;150.55;;;50.90;;
37609;SDS011;23457;51.966;8.230;2023-02-21T09:28:39;150.30;;;50.58;;
37609;SDS011;23457;51.966;8.230;2023-02-21T09:31:08;143.95;;;48.85;;
37609;SDS011;23457;51.966;8.230;2023-02-21T09:33:36;161.23;;;52.80;;
37609;SDS011;23457;51.966;8.230;2023-02-21T09:36:09;153.38;;;50.42;;
37609;SDS011;23457;51.966;8.230;2023-02-21T09:38:36;155.55;;;51.95;;
37609;SDS011;23457;51.966;8.230;2023-02-21T09:41:11;150.60;;;51.05;;
37609;SDS011;23457;51.966;8.230;2023-02-21T09:43:42;141.70;;;50.47;;
37609;SDS011;23457;51.966;8.230;2023-02-21T09:46:13;151.20;;;51.88;;
37609;SDS011;23457;51.966;8.230;2023-02-21T09:48:46;148.40;;;51.47;;
37609;SDS011;23457;51.966;8.230;2023-02-21T09:51:14;148.05;;;50.80;;
37609;SDS011;23457;51.966;8.230;2023-02-21T09:53:44;145.32;;;51.92;;
37609;SDS011;23457;51.966;8.230;2023-02-21T09:59:11;144.40;;;52.22;;
37609;SDS011;23457;51.966;8.230;2023-02-21T10:04:30;150.63;;;50.20;;
37609;SDS011;23457;51.966;8.230;2023-02-21T10:07:13;144.77;;;49.45;;
37609;SDS011;23457;51.966;8.230;2023-02-21T10:10:00;132.38;;;47.08;;
37609;SDS011;23457;51.966;8.230;2023-02-21T10:20:32;128.43;;;44.85;;
37609;SDS011;23457;51.966;8.230;2023-02-21T10:23:16;148.95;;;50.40;;
37609;SDS011;23457;51.966;8.230;2023-02-21T10:25:59;143.02;;;49.78;;
37609;SDS011;23457;51.966;8.230;2023-02-21T10:28:29;140.30;;;47.03;;
37609;SDS011;23457;51.966;8.230;2023-02-21T10:30:57;135.70;;;47.78;;
37609;SDS011;23457;51.966;8.230;2023-02-21T10:33:26;138.80;;;47.47;;
37609;SDS011;23457;51.966;8.230;2023-02-21T10:35:53;135.00;;;47.70;;
37609;SDS011;23457;51.966;8.230;2023-02-21T10:38:22;133.98;;;47.58;;
37609;SDS011;23457;51.966;8.230;2023-02-21T10:40:55;128.73;;;46.92;;
37609;SDS011;23457;51.966;8.230;2023-02-21T10:43:40;125.45;;;46.92;;
37609;SDS011;23457;51.966;8.230;2023-02-21T10:46:33;136.98;;;47.13;;
37609;SDS011;23457;51.966;8.230;2023-02-21T10:49:16;118.75;;;44.90;;
37609;SDS011;23457;51.966;8.230;2023-02-21T10:51:49;125.78;;;46.78;;
37609;SDS011;23457;51.966;8.230;2023-02-21T10:54:29;124.95;;;46.33;;
37609;SDS011;23457;51.966;8.230;2023-02-21T10:57:00;124.78;;;46.50;;
37609;SDS011;23457;51.966;8.230;2023-02-21T10:59:30;135.73;;;48.60;;
37609;SDS011;23457;51.966;8.230;2023-02-21T11:02:00;140.18;;;49.88;;
37609;SDS011;23457;51.966;8.230;2023-02-21T11:04:29;131.75;;;49.80;;
37609;SDS011;23457;51.966;8.230;2023-02-21T11:08:08;133.30;;;46.47;;
37609;SDS011;23457;51.966;8.230;2023-02-21T11:10:37;122.30;;;45.00;;
37609;SDS011;23457;51.966;8.230;2023-02-21T11:13:18;118.30;;;44.40;;
37609;SDS011;23457;51.966;8.230;2023-02-21T11:15:47;107.22;;;41.78;;
37609;SDS011;23457;51.966;8.230;2023-02-21T11:18:18;105.72;;;40.85;;
37609;SDS011;23457;51.966;8.230;2023-02-21T11:20:51;102.82;;;40.28;;
37609;SDS011;23457;51.966;8.230;2023-02-21T11:23:19;107.38;;;40.70;;
37609;SDS011;23457;51.966;8.230;2023-02-21T11:26:05;107.30;;;41.38;;
37609;SDS011;23457;51.966;8.230;2023-02-21T11:28:35;106.63;;;41.25;;
37609;SDS011;23457;51.966;8.230;2023-02-21T11:31:14;103.43;;;39.75;;
37609;SDS011;23457;51.966;8.230;2023-02-21T11:34:01;101.18;;;41.38;;
37609;SDS011;23457;51.966;8.230;2023-02-21T11:36:40;118.85;;;44.88;;
37609;SDS011;23457;51.966;8.230;2023-02-21T11:39:16;118.93;;;44.33;;
37609;SDS011;23457;51.966;8.230;2023-02-21T11:52:19;107.05;;;42.47;;
37609;SDS011;23457;51.966;8.230;2023-02-21T11:54:50;112.50;;;41.53;;
37609;SDS011;23457;51.966;8.230;2023-02-21T12:10:51;108.10;;;40.30;;
37609;SDS011;23457;51.966;8.230;2023-02-21T12:16:54;101.43;;;39.17;;
37609;SDS011;23457;51.966;8.230;2023-02-21T12:32:36;92.10;;;36.47;;
37609;SDS011;23457;51.966;8.230;2023-02-21T12:43:49;94.70;;;37.07;;
37609;SDS011;23457;51.966;8.230;2023-02-21T12:46:24;98.88;;;38.03;;
37609;SDS011;23457;51.966;8.230;2023-02-21T12:51:41;94.90;;;36.92;;
37609;SDS011;23457;51.966;8.230;2023-02-21T12:54:18;99.10;;;37.65;;
37609;SDS011;23457;51.966;8.230;2023-02-21T12:57:00;107.40;;;37.10;;
37609;SDS011;23457;51.966;8.230;2023-02-21T13:05:20;99.80;;;35.85;;
37609;SDS011;23457;51.966;8.230;2023-02-21T13:08:00;92.32;;;37.30;;
37609;SDS011;23457;51.966;8.230;2023-02-21T13:10:52;93.90;;;37.03;;
37609;SDS011;23457;51.966;8.230;2023-02-21T13:13:27;88.88;;;35.47;;
37609;SDS011;23457;51.966;8.230;2023-02-21T13:15:59;87.30;;;35.20;;
37609;SDS011;23457;51.966;8.230;2023-02-21T13:18:36;89.40;;;38.03;;
37609;SDS011;23457;51.966;8.230;2023-02-21T13:24:12;94.78;;;36.05;;
37609;SDS011;23457;51.966;8.230;2023-02-21T13:30:43;88.25;;;36.78;;
37609;SDS011;23457;51.966;8.230;2023-02-21T13:33:02;89.57;;;35.70;;
37609;SDS011;23457;51.966;8.230;2023-02-21T13:35:36;92.85;;;37.28;;
37609;SDS011;23457;51.966;8.230;2023-02-21T13:38:05;93.72;;;37.00;;
37609;SDS011;23457;51.966;8.230;2023-02-21T13:40:35;88.40;;;37.67;;
37609;SDS011;23457;51.966;8.230;2023-02-21T13:43:10;102.10;;;39.55;;
37609;SDS011;23457;51.966;8.230;2023-02-21T13:45:44;93.95;;;37.67;;
37609;SDS011;23457;51.966;8.230;2023-02-21T13:50:58;89.68;;;36.58;;
37609;SDS011;23457;51.966;8.230;2023-02-21T13:53:30;97.40;;;37.85;;
37609;SDS011;23457;51.966;8.230;2023-02-21T13:56:17;99.65;;;39.05;;
37609;SDS011;23457;51.966;8.230;2023-02-21T13:58:46;95.55;;;40.38;;
37609;SDS011;23457;51.966;8.230;2023-02-21T14:01:19;91.50;;;37.43;;
37609;SDS011;23457;51.966;8.230;2023-02-21T14:03:54;93.95;;;40.33;;
37609;SDS011;23457;51.966;8.230;2023-02-21T14:06:35;89.63;;;39.60;;
37609;SDS011;23457;51.966;8.230;2023-02-21T14:11:37;94.95;;;41.65;;
37609;SDS011;23457;51.966;8.230;2023-02-21T14:14:20;92.07;;;40.40;;
37609;SDS011;23457;51.966;8.230;2023-02-21T14:19:31;95.93;;;41.00;;
37609;SDS011;23457;51.966;8.230;2023-02-21T14:22:17;97.15;;;39.80;;
37609;SDS011;23457;51.966;8.230;2023-02-21T14:24:50;94.63;;;40.97;;
37609;SDS011;23457;51.966;8.230;2023-02-21T14:27:29;98.38;;;41.75;;
37609;SDS011;23457;51.966;8.230;2023-02-21T14:52:01;86.32;;;38.95;;
37609;SDS011;23457;51.966;8.230;2023-02-21T15:03:28;87.47;;;38.65;;
37609;SDS011;23457;51.966;8.230;2023-02-21T15:08:40;81.78;;;36.45;;
37609;SDS011;23457;51.966;8.230;2023-02-21T15:11:33;81.30;;;35.92;;
37609;SDS011;23457;51.966;8.230;2023-02-21T15:14:22;76.53;;;36.55;;
37609;SDS011;23457;51.966;8.230;2023-02-21T15:17:00;84.20;;;39.08;;
37609;SDS011;23457;51.966;8.230;2023-02-21T15:19:38;82.22;;;37.70;;
37609;SDS011;23457;51.966;8.230;2023-02-21T15:24:32;80.43;;;37.45;;
37609;SDS011;23457;51.966;8.230;2023-02-21T15:27:07;81.40;;;36.95;;
37609;SDS011;23457;51.966;8.230;2023-02-21T15:29:38;86.13;;;38.28;;
37609;SDS011;23457;51.966;8.230;2023-02-21T15:32:05;80.78;;;37.65;;
37609;SDS011;23457;51.966;8.230;2023-02-21T15:34:36;74.65;;;36.25;;
37609;SDS011;23457;51.966;8.230;2023-02-21T15:37:15;81.80;;;37.63;;
37609;SDS011;23457;51.966;8.230;2023-02-21T15:42:21;70.90;;;33.67;;
37609;SDS011;23457;51.966;8.230;2023-02-21T15:44:51;73.68;;;35.33;;
37609;SDS011;23457;51.966;8.230;2023-02-21T15:47:25;72.03;;;34.13;;
37609;SDS011;23457;51.966;8.230;2023-02-21T16:00:25;81.38;;;37.45;;
37609;SDS011;23457;51.966;8.230;2023-02-21T16:03:20;80.65;;;38.03;;
37609;SDS011;23457;51.966;8.230;2023-02-21T16:05:54;81.78;;;38.42;;
37609;SDS011;23457;51.966;8.230;2023-02-21T16:11:04;72.72;;;37.40;;
37609;SDS011;23457;51.966;8.230;2023-02-21T16:13:34;79.20;;;37.28;;
37609;SDS011;23457;51.966;8.230;2023-02-21T16:16:03;80.68;;;38.50;;
37609;SDS011;23457;51.966;8.230;2023-02-21T16:18:30;81.93;;;38.78;;
37609;SDS011;23457;51.966;8.230;2023-02-21T16:20:58;80.07;;;38.42;;
37609;SDS011;23457;51.966;8.230;2023-02-21T16:24:00;84.40;;;38.38;;
37609;SDS011;23457;51.966;8.230;2023-02-21T16:26:24;81.78;;;37.25;;
37609;SDS011;23457;51.966;8.230;2023-02-21T16:28:54;82.07;;;39.80;;
37609;SDS011;23457;51.966;8.230;2023-02-21T16:31:25;85.88;;;40.08;;
37609;SDS011;23457;51.966;8.230;2023-02-21T16:33:57;85.32;;;41.42;;
37609;SDS011;23457;51.966;8.230;2023-02-21T16:36:24;81.13;;;39.55;;
37609;SDS011;23457;51.966;8.230;2023-02-21T16:38:53;83.15;;;38.88;;
37609;SDS011;23457;51.966;8.230;2023-02-21T16:41:21;81.63;;;38.90;;
37609;SDS011;23457;51.966;8.230;2023-02-21T16:43:48;84.72;;;40.95;;
37609;SDS011;23457;51.966;8.230;2023-02-21T16:46:22;81.13;;;39.70;;
37609;SDS011;23457;51.966;8.230;2023-02-21T16:51:23;76.03;;;37.03;;
37609;SDS011;23457;51.966;8.230;2023-02-21T16:53:49;85.82;;;39.58;;
37609;SDS011;23457;51.966;8.230;2023-02-21T16:56:16;83.43;;;40.50;;
37609;SDS011;23457;51.966;8.230;2023-02-21T16:58:45;84.80;;;39.78;;
37609;SDS011;23457;51.966;8.230;2023-02-21T17:01:14;84.18;;;38.90;;
37609;SDS011;23457;51.966;8.230;2023-02-21T17:03:47;84.75;;;40.28;;
37609;SDS011;23457;51.966;8.230;2023-02-21T17:06:16;93.53;;;43.05;;
37609;SDS011;23457;51.966;8.230;2023-02-21T17:08:46;86.63;;;40.67;;
37609;SDS011;23457;51.966;8.230;2023-02-21T17:11:13;88.10;;;41.40;;
37609;SDS011;23457;51.966;8.230;2023-02-21T17:13:40;88.10;;;43.85;;
37609;SDS011;23457;51.966;8.230;2023-02-21T17:16:07;91.20;;;42.97;;
37609;SDS011;23457;51.966;8.230;2023-02-21T17:18:35;88.07;;;43.42;;
37609;SDS011;23457;51.966;8.230;2023-02-21T17:21:01;85.55;;;40.33;;
37609;SDS011;23457;51.966;8.230;2023-02-21T17:23:29;92.45;;;44.75;;
37609;SDS011;23457;51.966;8.230;2023-02-21T17:25:56;110.35;;;52.58;;
37609;SDS011;23457;51.966;8.230;2023-02-21T17:28:22;106.45;;;49.08;;
37609;SDS011;23457;51.966;8.230;2023-02-21T17:30:49;98.55;;;45.75;;
37609;SDS011;23457;51.966;8.230;2023-02-21T17:33:16;90.45;;;42.22;;
37609;SDS011;23457;51.966;8.230;2023-02-21T17:35:43;92.82;;;43.08;;
37609;SDS011;23457;51.966;8.230;2023-02-21T17:38:10;94.50;;;42.70;;
37609;SDS011;23457;51.966;8.230;2023-02-21T17:40:37;88.35;;;40.67;;
37609;SDS011;23457;51.966;8.230;2023-02-21T17:43:03;88.65;;;40.67;;